Latest Weather Observations for Kingscote

IDS60801

Issued at 6:01 am CST Saturday 24 June 2017 (issued every 30 minutes, with the page automatically refreshed every 10 minutes)

About weather observations | Map of weather stations | Latest weather observations for SA | Other Formats
Station Details ID: 022841 Name: KINGSCOTE AERO Lat: -35.71 Lon: 137.52 Height: 6.23 m
Data from the previous 72 hours. | See also: Recent months at Kingscote
Date/Time
CST
Temp
°C
App
Temp
°C
Dew
Point
°C
Rel
Hum
%
Delta-T
°C
Wind Press
QNH
hPa
Press
MSL
hPa
Rain since
9am
mm
Dir  Spd
km/h
Gust
km/h
Spd
kts
Gust
kts
24/06:00am 6.6 3.3 6.3 98 0.1 WSW 13 15 7 8 1019.2 1019.2 0.0
24/05:52am 6.3 4.2 5.9 97 0.2 SW 6 15 3 8 1019.2 1019.2 0.0
24/05:30am 7.1 6.4 6.8 98 0.1 CALM 0 0 0 0 1018.7 1018.7 0.0
24/05:00am 6.9 6.1 6.6 98 0.1 CALM 0 0 0 0 1019.0 1019.0 0.0
24/04:59am 6.9 6.1 6.6 98 0.1 CALM 0 0 0 0 1019.0 1019.0 0.0
24/04:44am 6.8 6.0 6.5 98 0.1 CALM 0 0 0 0 1019.0 1019.0 0.0
24/04:30am 6.4 5.5 6.1 98 0.1 CALM 0 0 0 0 1019.0 1019.0 0.0
24/04:08am 6.1 5.1 5.8 98 0.1 CALM 0 0 0 0 1019.0 1019.0 0.0
24/04:00am 5.9 4.9 5.6 98 0.1 CALM 0 0 0 0 1019.1 1019.1 0.0
24/03:44am 5.6 4.5 5.3 98 0.1 CALM 0 0 0 0 1019.0 1019.0 0.0
24/03:30am 5.2 4.1 4.9 98 0.1 CALM 0 0 0 0 1019.1 1019.1 0.0
24/03:23am 5.0 3.8 4.7 98 0.1 CALM 0 0 0 0 1019.0 1019.0 0.0
24/03:16am 4.3 3.0 4.0 98 0.1 CALM 0 0 0 0 1019.1 1019.1 0.0
24/03:00am 3.8 2.4 3.5 98 0.1 CALM 0 0 0 0 1018.9 1018.9 0.0
24/02:30am 3.3 1.8 2.9 97 0.2 CALM 0 0 0 0 1018.8 1018.8 0.0
24/02:00am 4.5 3.2 4.1 97 0.2 CALM 0 0 0 0 1018.7 1018.7 0.0
24/01:30am 4.4 3.1 4.0 97 0.2 CALM 0 0 0 0 1018.7 1018.7 0.0
24/01:00am 5.8 4.8 5.5 98 0.1 CALM 0 0 0 0 1018.7 1018.7 0.0
24/12:30am 4.4 3.1 4.0 97 0.2 CALM 0 0 0 0 1019.0 1019.0 0.0
24/12:16am 4.2 2.8 3.8 97 0.2 CALM 0 0 0 0 1019.1 1019.1 0.0
24/12:00am 4.4 3.1 4.0 97 0.2 CALM 0 0 0 0 1019.1 1019.1 0.0
 
Date/Time
CST
Temp
°C
App
Temp
°C
Dew
Point
°C
Rel
Hum
%
Delta-T
°C
Wind Press
QNH
hPa
Press
MSL
hPa
Rain since
9am
mm
Dir  Spd
km/h
Gust
km/h
Spd
kts
Gust
kts
23/11:30pm 4.6 3.3 4.0 96 0.3 CALM 0 0 0 0 1019.1 1019.1 0.0
23/11:28pm 4.7 3.4 4.1 96 0.3 CALM 0 0 0 0 1019.1 1019.1 0.0
23/11:00pm 5.0 3.7 4.3 95 0.3 CALM 0 0 0 0 1019.1 1019.1 0.0
23/10:30pm 5.6 4.5 4.9 95 0.3 CALM 0 0 0 0 1019.0 1019.0 0.0
23/10:00pm 6.6 5.7 5.9 95 0.3 CALM 0 0 0 0 1019.1 1019.1 0.0
23/09:30pm 8.1 7.5 7.3 95 0.4 CALM 0 0 0 0 1019.0 1019.0 0.0
23/09:19pm 7.9 7.2 6.8 93 0.5 CALM 0 0 0 0 1019.0 1019.0 0.0
23/09:00pm 9.1 8.7 8.2 94 0.4 CALM 0 0 0 0 1018.9 1018.9 0.0
23/08:30pm 9.3 8.9 8.2 93 0.5 CALM 0 0 0 0 1018.6 1018.6 0.0
23/08:00pm 8.9 8.4 7.7 92 0.6 CALM 0 0 0 0 1018.3 1018.3 0.0
23/07:44pm 9.3 8.9 8.2 93 0.5 CALM 0 0 0 0 1018.2 1018.2 0.0
23/07:30pm 9.0 8.4 7.6 91 0.7 CALM 0 0 0 0 1018.2 1018.2 0.0
23/07:07pm 9.8 9.3 7.9 88 0.9 CALM 0 0 0 0 1018.0 1018.0 0.0
23/07:00pm 10.5 10.2 8.8 89 0.8 CALM 0 0 0 0 1017.9 1017.9 0.0
23/06:33pm 12.2 12.2 9.9 86 1.2 CALM 0 0 0 0 1017.6 1017.6 0.0
23/06:30pm 12.1 12.1 9.7 85 1.2 CALM 0 0 0 0 1017.6 1017.6 0.0
23/06:01pm 12.4 11.1 9.8 84 1.3 SSW 7 9 4 5 1017.3 1017.3 0.0
23/06:00pm 12.5 11.2 9.9 84 1.3 SSW 7 9 4 5 1017.3 1017.3 0.0
23/05:30pm 14.2 12.3 10.4 78 2.0 SSW 11 13 6 7 1017.0 1017.0 0.0
23/05:00pm 15.9 13.5 10.0 68 3.1 S 13 15 7 8 1016.6 1016.6 0.0
23/04:30pm 17.7 15.3 10.1 61 4.0 W 13 15 7 8 1016.3 1016.3 0.0
23/04:00pm 18.5 15.3 10.1 58 4.5 W 17 20 9 11 1016.1 1016.1 0.0
23/03:30pm 19.2 15.8 9.1 52 5.3 W 17 20 9 11 1016.0 1016.0 0.0
23/03:00pm 19.6 16.4 10.0 54 5.1 NW 17 22 9 12 1016.1 1016.1 0.0
23/02:30pm 19.7 16.4 9.6 52 5.4 WNW 17 22 9 12 1016.0 1016.0 0.0
23/02:00pm 19.8 16.5 9.7 52 5.4 WNW 17 28 9 15 1016.2 1016.2 0.0
23/01:30pm 19.7 16.9 11.2 58 4.6 WNW 17 22 9 12 1016.6 1016.6 0.0
23/01:00pm 18.4 15.6 11.2 63 3.9 NW 17 22 9 12 1016.9 1016.9 0.0
23/12:30pm 18.4 16.2 12.2 67 3.4 NNW 15 24 8 13 1016.9 1016.9 0.0
23/12:00pm 18.3 16.3 12.7 70 3.1 NNW 15 20 8 11 1017.5 1017.5 0.0
23/11:30am 18.4 16.1 11.7 65 3.7 NNW 15 17 8 9 1017.6 1017.6 0.0
23/11:00am 18.1 15.4 10.5 61 4.1 NW 15 19 8 10 1017.9 1017.9 0.0
23/10:30am 16.2 17.0 12.4 78 2.1 CALM 0 0 0 0 1018.3 1018.3 0.0
23/10:00am 13.1 13.6 11.7 91 0.7 CALM 0 0 0 0 1018.0 1018.0 0.0
23/09:30am 9.3 9.0 8.7 96 0.3 CALM 0 0 0 0 1018.2 1018.2 0.0
23/09:00am 7.9 7.3 7.5 97 0.2 CALM 0 0 0 0 1018.1 1018.1 0.0
23/08:30am 6.3 5.4 5.9 97 0.2 CALM 0 0 0 0 1018.1 1018.1 0.0
23/08:00am 4.7 3.4 4.1 96 0.3 CALM 0 0 0 0 1017.9 1017.9 0.0
23/07:30am 4.1 2.7 3.5 96 0.2 CALM 0 0 0 0 1018.0 1018.0 0.0
23/07:00am 4.1 2.7 3.5 96 0.2 CALM 0 0 0 0 1017.7 1017.7 0.0
23/06:30am 4.2 2.8 3.8 97 0.2 CALM 0 0 0 0 1017.6 1017.6 0.0
23/06:00am 3.9 2.5 3.3 96 0.2 CALM 0 0 0 0 1017.5 1017.5 0.0
23/05:30am 3.5 2.0 3.1 97 0.2 CALM 0 0 0 0 1017.5 1017.5 0.0
23/05:00am 3.1 1.5 2.7 97 0.2 CALM 0 0 0 0 1017.4 1017.4 0.0
23/04:30am 3.3 1.8 2.9 97 0.2 CALM 0 0 0 0 1017.7 1017.7 0.0
23/04:00am 3.3 1.8 2.9 97 0.2 CALM 0 0 0 0 1018.0 1018.0 0.0
23/03:30am 2.1 0.4 1.7 97 0.2 CALM 0 0 0 0 1018.1 1018.1 0.0
23/03:00am 2.0 0.3 1.6 97 0.2 CALM 0 0 0 0 1018.1 1018.1 0.0
23/02:30am 2.1 0.4 1.7 97 0.2 CALM 0 0 0 0 1018.3 1018.3 0.0
23/02:20am 1.9 0.1 1.5 97 0.2 CALM 0 0 0 0 1018.5 1018.5 0.0
23/02:00am 2.2 0.5 1.8 97 0.2 CALM 0 0 0 0 1018.7 1018.7 0.0
23/01:51am 2.0 0.3 1.6 97 0.2 CALM 0 0 0 0 1018.7 1018.7 0.0
23/01:35am 2.0 0.3 1.6 97 0.2 CALM 0 0 0 0 1018.8 1018.8 0.0
23/01:30am 2.2 0.5 1.8 97 0.2 CALM 0 0 0 0 1018.8 1018.8 0.0
23/01:15am 2.2 0.5 1.8 97 0.2 CALM 0 0 0 0 1018.7 1018.7 0.0
23/01:01am 2.7 1.1 2.3 97 0.2 CALM 0 0 0 0 1018.9 1018.9 0.0
23/01:00am 2.6 1.0 2.2 97 0.2 CALM 0 0 0 0 1018.9 1018.9 0.0
23/12:33am 2.5 0.8 2.1 97 0.2 CALM 0 0 0 0 1019.0 1019.0 0.0
23/12:30am 2.4 0.7 2.0 97 0.2 CALM 0 0 0 0 1019.1 1019.1 0.0
23/12:00am 2.4 0.7 1.8 96 0.2 CALM 0 0 0 0 1019.6 1019.6 0.0
 
Date/Time
CST
Temp
°C
App
Temp
°C
Dew
Point
°C
Rel
Hum
%
Delta-T
°C
Wind Press
QNH
hPa
Press
MSL
hPa
Rain since
9am
mm
Dir  Spd
km/h
Gust
km/h
Spd
kts
Gust
kts
22/11:30pm 2.9 1.3 2.3 96 0.2 CALM 0 0 0 0 1019.8 1019.8 0.0
22/11:07pm 3.0 1.4 2.4 96 0.2 CALM 0 0 0 0 1020.1 1020.1 0.0
22/11:01pm 3.0 1.4 2.4 96 0.2 CALM 0 0 0 0 1020.2 1020.2 0.0
22/11:00pm 2.9 1.3 2.3 96 0.2 CALM 0 0 0 0 1020.2 1020.2 0.0
22/10:37pm 4.1 2.7 3.5 96 0.2 CALM 0 0 0 0 1020.4 1020.4 0.0
22/10:30pm 4.4 3.0 3.8 96 0.2 CALM 0 0 0 0 1020.5 1020.5 0.0
22/10:09pm 3.8 2.3 3.2 96 0.2 CALM 0 0 0 0 1020.7 1020.7 0.0
22/10:00pm 3.8 2.3 3.1 95 0.3 CALM 0 0 0 0 1020.6 1020.6 0.0
22/09:59pm 3.8 2.3 3.1 95 0.3 CALM 0 0 0 0 1020.7 1020.7 0.0
22/09:41pm 4.7 3.4 4.0 95 0.3 CALM 0 0 0 0 1020.7 1020.7 0.0
22/09:30pm 5.0 3.8 4.4 96 0.3 CALM 0 0 0 0 1020.7 1020.7 0.0
22/09:29pm 4.8 3.5 4.1 95 0.3 CALM 0 0 0 0 1020.7 1020.7 0.0
22/09:00pm 5.4 4.2 4.7 95 0.3 CALM 0 0 0 0 1021.0 1021.0 0.0
22/08:58pm 5.4 4.2 4.7 95 0.3 CALM 0 0 0 0 1021.1 1021.1 0.0
22/08:39pm 5.2 4.0 4.5 95 0.3 CALM 0 0 0 0 1021.1 1021.1 0.0
22/08:30pm 5.1 3.8 4.2 94 0.4 CALM 0 0 0 0 1021.1 1021.1 0.0
22/08:20pm 6.2 5.1 5.3 94 0.4 CALM 0 0 0 0 1021.1 1021.1 0.0
22/08:00pm 6.8 5.9 5.9 94 0.4 CALM 0 0 0 0 1021.0 1021.0 0.0
22/07:30pm 7.3 6.4 6.2 93 0.5 CALM 0 0 0 0 1020.8 1020.8 0.0
22/07:00pm 7.8 7.0 6.3 90 0.7 CALM 0 0 0 0 1020.8 1020.8 0.0
22/06:30pm 9.0 7.5 7.0 87 0.9 ENE 4 7 2 4 1021.0 1021.0 0.0
22/06:00pm 10.4 9.4 7.5 82 1.4 NNE 2 7 1 4 1021.1 1021.1 0.0
22/05:30pm 12.9 10.7 9.5 80 1.7 NNE 11 13 6 7 1020.9 1020.9 0.0
22/05:00pm 14.0 12.2 9.6 75 2.3 NNE 9 13 5 7 1021.0 1021.0 0.0
22/04:30pm 14.4 12.2 9.4 72 2.6 NNE 11 15 6 8 1021.1 1021.1 0.0
22/04:00pm 15.6 12.7 9.7 68 3.1 NNE 15 19 8 10 1021.2 1021.2 0.0
22/03:30pm 16.5 14.1 8.5 59 4.1 N 11 15 6 8 1021.2 1021.2 0.0
22/03:00pm 16.3 13.1 8.5 60 4.0 N 15 20 8 11 1021.2 1021.2 0.0
22/02:30pm 16.6 13.8 8.6 59 4.1 N 13 17 7 9 1021.4 1021.4 0.0
22/02:00pm 15.9 13.1 8.4 61 3.8 N 13 17 7 9 1021.8 1021.8 0.0
22/01:30pm 16.2 12.9 7.9 58 4.2 N 15 22 8 12 1022.0 1022.0 0.0
22/01:00pm 16.3 12.7 8.3 59 4.1 N 17 24 9 13 1022.6 1022.6 0.0
22/12:30pm 16.5 13.2 8.0 57 4.3 N 15 24 8 13 1023.3 1023.3 0.0
22/12:00pm 16.5 13.3 8.5 59 4.1 NNE 15 22 8 12 1023.8 1023.8 0.0
22/11:30am 16.4 13.0 9.3 63 3.7 N 17 20 9 11 1024.6 1024.6 0.0
22/11:00am 15.8 12.7 9.0 64 3.5 N 15 20 8 11 1025.2 1025.2 0.0
22/10:30am 14.6 14.0 12.3 86 1.2 NE 7 13 4 7 1025.5 1025.5 0.0
22/10:00am 11.7 12.1 11.4 98 0.2 CALM 0 0 0 0 1025.8 1025.8 0.0
22/09:30am 8.6 8.3 8.5 99 0.0 CALM 0 0 0 0 1025.9 1025.9 0.0
22/09:00am 6.4 5.5 6.1 98 0.1 CALM 0 0 0 0 1025.7 1025.7 0.4
22/08:30am 4.6 3.3 4.3 98 0.1 CALM 0 0 0 0 1025.8 1025.8 0.4
22/08:08am 2.9 1.3 2.6 98 0.1 CALM 0 0 0 0 1025.9 1025.9 0.4
22/08:00am 3.3 1.8 3.0 98 0.1 CALM 0 0 0 0 1025.9 1025.9 0.4
22/07:52am 2.5 0.9 2.2 98 0.1 CALM 0 0 0 0 1025.8 1025.8 0.4
22/07:40am 2.2 0.5 1.9 98 0.1 CALM 0 0 0 0 1025.8 1025.8 0.4
22/07:30am 2.6 1.0 2.3 98 0.1 CALM 0 0 0 0 1025.7 1025.7 0.4
22/07:00am 3.0 1.4 2.7 98 0.1 CALM 0 0 0 0 1025.4 1025.4 0.4
22/06:30am 3.8 2.4 3.5 98 0.1 CALM 0 0 0 0 1025.1 1025.1 0.2
22/06:00am 4.2 2.9 3.9 98 0.1 CALM 0 0 0 0 1025.2 1025.2 0.2
22/05:53am 4.3 3.0 4.0 98 0.1 CALM 0 0 0 0 1025.2 1025.2 0.2
22/05:30am 4.3 3.0 4.0 98 0.1 CALM 0 0 0 0 1025.2 1025.2 0.2
22/05:00am 4.8 3.6 4.5 98 0.1 CALM 0 0 0 0 1024.8 1024.8 0.2
22/04:30am 4.8 3.6 4.5 98 0.1 CALM 0 0 0 0 1025.0 1025.0 0.2
22/04:00am 5.4 4.3 5.1 98 0.1 CALM 0 0 0 0 1025.2 1025.2 0.2
22/03:30am 5.4 4.3 5.1 98 0.1 CALM 0 0 0 0 1025.3 1025.3 0.2
22/03:00am 5.1 3.9 4.8 98 0.1 CALM 0 0 0 0 1025.3 1025.3 0.2
22/02:30am 5.3 4.2 4.9 97 0.2 CALM 0 0 0 0 1025.5 1025.5 0.2
22/02:00am 6.2 5.2 5.8 97 0.2 CALM 0 0 0 0 1025.8 1025.8 0.2
22/01:30am 6.7 5.9 6.3 97 0.2 CALM 0 0 0 0 1025.8 1025.8 0.2
22/01:00am 6.8 6.0 6.4 97 0.2 CALM 0 0 0 0 1025.8 1025.8 0.2
22/12:30am 7.5 6.8 7.1 97 0.2 CALM 0 0 0 0 1026.1 1026.1 0.2
22/12:00am 8.3 7.8 7.9 97 0.2 CALM 0 0 0 0 1026.4 1026.4 0.0
 
Date/Time
CST
Temp
°C
App
Temp
°C
Dew
Point
°C
Rel
Hum
%
Delta-T
°C
Wind Press
QNH
hPa
Press
MSL
hPa
Rain since
9am
mm
Dir  Spd
km/h
Gust
km/h
Spd
kts
Gust
kts
21/11:30pm 8.6 8.2 8.2 97 0.2 CALM 0 0 0 0 1026.7 1026.7 0.0
21/11:00pm 8.3 7.8 7.9 97 0.2 CALM 0 0 0 0 1026.8 1026.8 0.0
21/10:30pm 7.8 7.2 7.4 97 0.2 CALM 0 0 0 0 1026.9 1026.9 0.0
21/10:00pm 7.9 7.3 7.5 97 0.2 CALM 0 0 0 0 1027.0 1027.0 0.0
21/09:30pm 8.2 6.4 7.8 97 0.2 W 7 9 4 5 1027.3 1027.3 0.0
21/09:00pm 7.8 6.0 7.2 96 0.3 SW 6 9 3 5 1027.4 1027.4 0.0
21/08:37pm 7.8 6.0 7.2 96 0.3 SW 6 9 3 5 1027.5 1027.5 0.0
21/08:35pm 7.7 5.9 7.1 96 0.3 SW 6 9 3 5 1027.5 1027.5 0.0
21/08:30pm 7.7 6.3 7.1 96 0.3 WSW 4 9 2 5 1027.6 1027.6 0.0
21/08:00pm 9.1 8.8 8.5 96 0.3 CALM 0 0 0 0 1027.4 1027.4 0.0
21/07:54pm 8.8 8.3 7.9 94 0.4 CALM 0 0 0 0 1027.4 1027.4 0.0
21/07:30pm 10.4 10.3 9.6 95 0.4 CALM 0 0 0 0 1027.3 1027.3 0.0
21/07:00pm 10.6 10.1 9.4 92 0.6 NNE 2 6 1 3 1027.0 1027.0 0.0
21/06:30pm 12.6 13.0 11.3 92 0.7 CALM 0 0 0 0 1026.8 1026.8 0.0
21/06:00pm 13.5 12.9 11.7 89 1.0 NE 6 9 3 5 1026.6 1026.6 0.0
21/05:30pm 14.6 13.6 12.3 86 1.2 NE 9 11 5 6 1026.3 1026.3 0.0
21/05:00pm 15.3 14.5 12.8 85 1.4 N 9 13 5 7 1026.4 1026.4 0.0
21/04:30pm 15.9 14.6 12.6 81 1.8 N 11 13 6 7 1026.4 1026.4 0.0
21/04:00pm 16.1 14.4 12.5 79 2.0 N 13 17 7 9 1026.4 1026.4 0.0
21/03:30pm 16.9 15.1 12.2 74 2.6 N 13 15 7 8 1026.5 1026.5 0.0
21/03:00pm 17.3 15.2 11.3 68 3.2 N 13 19 7 10 1026.3 1026.3 0.0
21/02:30pm 17.2 15.8 13.3 78 2.2 NNE 13 19 7 10 1026.2 1026.2 0.0
21/02:00pm 16.6 14.6 12.8 78 2.1 NNE 15 20 8 11 1026.4 1026.4 0.0
21/01:30pm 17.2 15.3 13.1 77 2.3 NE 15 22 8 12 1026.7 1026.7 0.0
21/01:00pm 17.3 15.7 14.0 81 1.9 NE 15 19 8 10 1027.2 1027.2 0.0
21/12:30pm 16.8 15.6 12.7 77 2.3 E 11 15 6 8 1027.5 1027.5 0.0
21/12:00pm 17.2 16.8 12.5 74 2.6 ENE 6 15 3 8 1027.9 1027.9 0.0
21/11:30am 17.2 17.5 10.8 66 3.4 CALM 0 0 0 0 1028.4 1028.4 0.0
21/11:00am 15.2 16.5 14.2 94 0.6 CALM 0 0 0 0 1028.8 1028.8 0.0
21/10:38am 13.7 14.7 13.2 97 0.3 CALM 0 0 0 0 1028.9 1028.9 0.0
21/10:31am 13.4 14.4 13.1 98 0.2 CALM 0 0 0 0 1028.8 1028.8 0.0
21/10:30am 13.3 14.2 13.0 98 0.2 CALM 0 0 0 0 1028.8 1028.8 0.0
21/10:00am 11.5 11.9 11.2 98 0.2 CALM 0 0 0 0 1028.7 1028.7 0.0
21/09:53am 11.2 11.5 10.9 98 0.2 CALM 0 0 0 0 1028.7 1028.7 0.0
21/09:50am 11.2 11.5 10.9 98 0.2 CALM 0 0 0 0 1028.7 1028.7 0.0
21/09:32am 10.2 10.3 10.1 99 0.1 CALM 0 0 0 0 1028.6 1028.6 0.0
21/09:30am 10.0 10.0 9.9 99 0.0 CALM 0 0 0 0 1028.6 1028.6 0.0
21/09:20am 9.1 8.9 9.0 99 0.0 CALM 0 0 0 0 1028.6 1028.6 0.0
21/09:00am 7.5 6.9 7.2 98 0.1 CALM 0 0 0 0 1028.8 1028.8 0.2
21/08:30am 5.9 4.9 5.6 98 0.1 CALM 0 0 0 0 1028.8 1028.8 0.2
21/08:00am 4.4 3.1 4.1 98 0.1 CALM 0 0 0 0 1028.4 1028.4 0.2
21/07:30am 4.0 1.5 3.7 98 0.1 S 6 7 3 4 1028.0 1028.0 0.2
21/07:00am 3.4 0.8 3.0 97 0.2 SE 6 9 3 5 1027.8 1027.8 0.2
21/06:34am 4.2 1.7 3.9 98 0.1 N 6 13 3 7 1027.3 1027.3 0.2
21/06:30am 4.4 2.3 4.1 98 0.1 N 4 13 2 7 1027.3 1027.3 0.2
21/06:08am 4.3 3.0 4.0 98 0.1 CALM 0 0 0 0 1027.3 1027.3 0.2

Other Formats:

Comma delimited format used in spreadsheet applications
http://www.bom.gov.au/fwo/IDS60801/IDS60801.95807.axf

JavaScript Object Notation format (JSON) in row-major order
http://www.bom.gov.au/fwo/IDS60801/IDS60801.95807.json